Terminal Aerodrome Forecast
Issued by NWS Austin/San Antonio, TX

Home | Current Version | Previous Version | Text Only | Print | Product List | Glossary On
Versions: 1 2 3 4 5 6 7 8 9 10 11 12 13 14 15 16
320
FTUS44 KEWX 240004 CCA
TAFDRT
TAF COR
KDRT 240004Z 2400/2424 14008KT P6SM FEW060 BKN150
     FM240200 10005KT P6SM BKN150
     FM241500 14009KT P6SM SCT050 BKN200
     FM241900 15011KT P6SM VCSH BKN060=

USA.gov is the U.S. government's official web portal to all federal, state and local government web resources and services.